createdAt,value
2024-04-03T00:02:57.243Z,15.05
2024-04-03T00:05:56.920Z,15.15
2024-04-03T00:07:56.731Z,15.18
2024-04-03T00:09:56.729Z,15.2
2024-04-03T00:12:56.737Z,15.21
2024-04-03T00:15:57.296Z,15.2
2024-04-03T00:18:56.744Z,15.17
2024-04-03T00:20:56.713Z,15.17
2024-04-03T00:22:57.495Z,15.13
2024-04-03T00:24:57.519Z,15.07
2024-04-03T00:27:56.729Z,14.98
2024-04-03T00:29:56.741Z,14.94
2024-04-03T00:31:56.718Z,14.84
2024-04-03T00:33:56.729Z,14.87
2024-04-03T00:36:56.696Z,14.91
2024-04-03T00:38:56.719Z,14.87
2024-04-03T00:40:56.717Z,14.78
2024-04-03T00:42:57.670Z,14.77
2024-04-03T00:45:57.919Z,14.78
2024-04-03T00:48:59.000Z,14.78
2024-04-03T00:50:57.130Z,14.81
2024-04-03T00:52:57.435Z,14.75
2024-04-03T00:55:58.621Z,14.61
2024-04-03T00:57:57.389Z,14.59
2024-04-03T01:00:57.528Z,14.62
2024-04-03T01:03:56.741Z,14.67
2024-04-03T01:05:56.812Z,14.65
2024-04-03T01:08:56.735Z,14.6
2024-04-03T01:11:02.511Z,14.57
2024-04-03T01:13:56.728Z,14.5
2024-04-03T01:15:57.156Z,14.54
2024-04-03T01:17:57.506Z,14.51
2024-04-03T01:20:57.342Z,14.52
2024-04-03T01:23:56.711Z,14.5
2024-04-03T01:25:56.747Z,14.51
2024-04-03T01:28:57.332Z,14.51
2024-04-03T01:31:56.758Z,14.5
2024-04-03T01:34:56.798Z,14.51
2024-04-03T01:37:56.732Z,14.51
2024-04-03T01:40:56.722Z,14.52
2024-04-03T01:42:56.736Z,14.5
2024-04-03T01:44:57.226Z,14.46
2024-04-03T01:46:57.487Z,14.49
2024-04-03T01:49:57.142Z,14.52
2024-04-03T01:52:57.250Z,14.48
2024-04-03T01:55:56.744Z,14.44
2024-04-03T01:57:57.881Z,14.42
2024-04-03T02:00:56.281Z,14.45
2024-04-03T02:02:56.766Z,14.43
2024-04-03T02:04:56.739Z,14.42
2024-04-03T02:07:56.755Z,14.44
2024-04-03T02:10:56.877Z,14.41
2024-04-03T02:12:57.281Z,14.38
2024-04-03T02:15:56.838Z,14.34
2024-04-03T02:18:57.259Z,14.33
2024-04-03T02:21:57.225Z,14.34
2024-04-03T02:24:56.730Z,14.29
2024-04-03T02:26:56.721Z,14.3
2024-04-03T02:29:56.766Z,14.27
2024-04-03T02:31:57.223Z,14.32
2024-04-03T02:34:56.774Z,14.3
2024-04-03T02:37:56.764Z,14.32
2024-04-03T02:40:57.128Z,14.3
2024-04-03T02:42:57.634Z,14.23
2024-04-03T02:45:56.715Z,14.17
2024-04-03T02:47:57.307Z,14.18
2024-04-03T02:50:57.353Z,14.16
2024-04-03T02:53:57.054Z,14.1
2024-04-03T02:56:57.575Z,14.09
2024-04-03T02:59:57.194Z,14.11
2024-04-03T03:01:57.396Z,14.08
2024-04-03T03:04:57.248Z,13.97
2024-04-03T03:07:56.724Z,14.09
2024-04-03T03:09:57.490Z,14.1
2024-04-03T03:12:56.740Z,14.16
2024-04-03T03:14:56.747Z,14.17
2024-04-03T03:17:56.794Z,14.19
2024-04-03T03:20:57.437Z,14.18
2024-04-03T03:23:56.727Z,14.15
2024-04-03T03:25:56.990Z,14.17
2024-04-03T03:27:57.140Z,14.21
2024-04-03T03:30:57.712Z,14.18
2024-04-03T03:33:56.769Z,14.16
2024-04-03T03:36:56.770Z,14.18
2024-04-03T03:39:57.089Z,14.16
2024-04-03T03:42:56.769Z,14.21
2024-04-03T03:44:57.418Z,14.16
2024-04-03T03:47:56.769Z,14.18
2024-04-03T03:49:56.808Z,14.09
2024-04-03T03:52:56.925Z,14.11
2024-04-03T03:55:57.229Z,14.09
2024-04-03T03:58:56.757Z,14.06
2024-04-03T04:00:57.343Z,14.07
2024-04-03T04:02:57.424Z,14.06
2024-04-03T04:05:57.554Z,14.11
2024-04-03T04:08:56.721Z,14.11
2024-04-03T04:10:56.788Z,14.1
2024-04-03T04:13:56.750Z,14.06
2024-04-03T04:15:57.631Z,14.05
2024-04-03T04:18:56.752Z,14.01
2024-04-03T04:20:57.313Z,13.97
2024-04-03T04:23:57.262Z,13.94
2024-04-03T04:26:56.728Z,13.96
2024-04-03T04:28:56.765Z,13.97
2024-04-03T04:30:57.037Z,13.94
2024-04-03T04:33:56.841Z,13.99
2024-04-03T04:36:56.758Z,14.03
2024-04-03T04:39:56.867Z,14
2024-04-03T04:41:57.345Z,13.97
2024-04-03T04:44:56.784Z,13.97
2024-04-03T04:46:57.396Z,13.94
2024-04-03T04:49:57.527Z,14.01
2024-04-03T04:52:56.760Z,14.05
2024-04-03T04:55:57.392Z,14.03
2024-04-03T04:58:57.292Z,14.02
2024-04-03T05:00:57.466Z,14
2024-04-03T05:03:57.246Z,14.03
2024-04-03T05:06:56.881Z,13.98
2024-04-03T05:08:57.486Z,13.89
2024-04-03T05:11:57.758Z,13.97
2024-04-03T05:14:56.849Z,14.01
2024-04-03T05:16:57.383Z,14.04
2024-04-03T05:19:56.745Z,14.03
2024-04-03T05:21:57.536Z,14.03
2024-04-03T05:24:56.773Z,14.06
2024-04-03T05:26:56.804Z,14.13
2024-04-03T05:28:57.389Z,14.13
2024-04-03T05:31:56.798Z,14.09
2024-04-03T05:33:57.423Z,13.99
2024-04-03T05:35:57.486Z,14.02
2024-04-03T05:37:57.530Z,14.01
2024-04-03T05:41:02.376Z,13.98
2024-04-03T05:43:56.750Z,14.03
2024-04-03T05:45:56.761Z,14.06
2024-04-03T05:47:56.754Z,14.08
2024-04-03T05:49:56.859Z,14.09
2024-04-03T05:52:56.867Z,14.06
2024-04-03T05:54:57.127Z,14.07
2024-04-03T05:57:56.783Z,14.07
2024-04-03T05:59:57.276Z,14.08
2024-04-03T06:02:57.255Z,14.15
2024-04-03T06:05:56.751Z,14.08
2024-04-03T06:08:56.759Z,14.09
2024-04-03T06:10:56.763Z,14.08
2024-04-03T06:13:56.874Z,14.09
2024-04-03T06:15:57.077Z,14.04
2024-04-03T06:18:56.763Z,14.01
2024-04-03T06:21:57.520Z,14.1
2024-04-03T06:24:57.368Z,14.05
2024-04-03T06:27:56.746Z,14.09
2024-04-03T06:29:56.743Z,14.12
2024-04-03T06:31:57.328Z,14.13
2024-04-03T06:34:56.750Z,14.07
2024-04-03T06:36:56.817Z,14
2024-04-03T06:39:57.667Z,13.89
2024-04-03T06:42:56.767Z,13.81
2024-04-03T06:45:56.764Z,13.83
2024-04-03T06:48:56.893Z,13.84
2024-04-03T06:50:57.110Z,13.91
2024-04-03T06:52:57.540Z,13.88
2024-04-03T06:55:57.428Z,13.96
2024-04-03T06:58:57.368Z,13.91
2024-04-03T07:01:57.390Z,13.89
2024-04-03T07:04:56.809Z,13.96
2024-04-03T07:06:57.015Z,13.96
2024-04-03T07:08:57.719Z,13.99
2024-04-03T07:11:56.796Z,13.98
2024-04-03T07:14:56.771Z,13.99
2024-04-03T07:16:57.359Z,13.98
2024-04-03T07:19:57.489Z,14
2024-04-03T07:22:56.767Z,14.01
2024-04-03T07:25:57.478Z,14.05
2024-04-03T07:28:57.328Z,13.98
2024-04-03T07:31:57.143Z,14.07
2024-04-03T07:34:56.750Z,14.14
2024-04-03T07:36:56.864Z,14.15
2024-04-03T07:38:56.901Z,14.11
2024-04-03T07:41:56.841Z,14.09
2024-04-03T07:44:57.149Z,14.06
2024-04-03T07:47:56.744Z,14.06
2024-04-03T07:49:56.948Z,14.07
2024-04-03T07:51:57.369Z,14.14
2024-04-03T07:54:56.776Z,14.2
2024-04-03T07:56:57.157Z,14.17
2024-04-03T07:59:56.786Z,14.16
2024-04-03T08:01:56.981Z,14.17
2024-04-03T08:03:57.491Z,14.18
2024-04-03T08:06:57.101Z,14.22
2024-04-03T08:09:57.336Z,14.23
2024-04-03T08:12:57.219Z,14.24
2024-04-03T08:15:56.751Z,14.27
2024-04-03T08:17:56.785Z,14.27
2024-04-03T08:20:57.254Z,14.28
2024-04-03T08:22:57.576Z,14.28
2024-04-03T08:25:57.573Z,14.32
2024-04-03T08:27:57.640Z,14.32
2024-04-03T08:30:56.764Z,14.33
2024-04-03T08:32:57.424Z,14.35
2024-04-03T08:35:56.746Z,14.37
2024-04-03T08:37:58.227Z,14.37
2024-04-03T08:40:56.756Z,14.39
2024-04-03T08:42:57.733Z,14.41
2024-04-03T08:45:57.336Z,14.44
2024-04-03T08:48:56.780Z,14.45
2024-04-03T08:51:56.749Z,14.5
2024-04-03T08:53:56.785Z,14.49
2024-04-03T08:56:57.494Z,14.52
2024-04-03T08:59:56.759Z,14.59
2024-04-03T09:01:57.253Z,14.61
2024-04-03T09:04:57.503Z,14.66
2024-04-03T09:07:59.490Z,14.69
2024-04-03T09:09:57.348Z,14.71
2024-04-03T09:12:56.776Z,14.76
2024-04-03T09:14:56.929Z,14.78
2024-04-03T09:17:01.906Z,14.8
2024-04-03T09:18:57.289Z,14.83
2024-04-03T09:21:56.782Z,14.86
2024-04-03T09:23:56.834Z,14.88
2024-04-03T09:26:56.798Z,14.92
2024-04-03T09:28:56.971Z,14.93
2024-04-03T09:31:57.017Z,14.93
2024-04-03T09:34:56.783Z,14.95
2024-04-03T09:37:56.956Z,14.97
2024-04-03T09:40:56.798Z,14.97
2024-04-03T09:42:56.815Z,14.99
2024-04-03T09:45:56.855Z,14.97
2024-04-03T09:48:57.335Z,14.95
2024-04-03T09:51:56.770Z,14.92
2024-04-03T09:54:57.257Z,14.93
2024-04-03T09:57:56.784Z,14.94
2024-04-03T09:59:56.886Z,14.94
2024-04-03T10:02:57.111Z,14.94
2024-04-03T10:05:56.775Z,14.95
2024-04-03T10:08:57.581Z,14.96
2024-04-03T10:11:57.651Z,14.95
2024-04-03T10:14:56.774Z,15.01
2024-04-03T10:17:51.319Z,15.02
2024-04-03T10:19:56.812Z,15.05
2024-04-03T10:22:56.943Z,15.07
2024-04-03T10:24:57.446Z,15.08
2024-04-03T10:27:56.784Z,15.11
2024-04-03T10:29:57.038Z,15.13
2024-04-03T10:32:56.775Z,15.13
2024-04-03T10:34:56.850Z,15.14
2024-04-03T10:36:57.235Z,15.16
2024-04-03T10:38:57.345Z,15.16
2024-04-03T10:42:56.850Z,15.17
2024-04-03T10:45:56.786Z,15.19
2024-04-03T10:47:57.154Z,15.19
2024-04-03T10:49:57.240Z,15.2
2024-04-03T10:52:56.793Z,15.22
2024-04-03T10:54:57.183Z,15.21
2024-04-03T10:56:57.234Z,15.19
2024-04-03T10:59:57.069Z,15.18
2024-04-03T11:02:57.097Z,15.19
2024-04-03T11:04:57.597Z,15.19
2024-04-03T11:07:56.817Z,15.17
2024-04-03T11:09:57.506Z,15.16
2024-04-03T11:11:57.618Z,15.17
2024-04-03T11:14:56.805Z,15.14
2024-04-03T11:16:57.518Z,15.14
2024-04-03T11:19:57.422Z,15.14
2024-04-03T11:22:57.704Z,15.17
2024-04-03T11:25:56.812Z,15.19
2024-04-03T11:28:56.826Z,15.22
2024-04-03T11:30:57.582Z,15.21
2024-04-03T11:33:56.793Z,15.24
2024-04-03T11:35:57.501Z,15.23
2024-04-03T11:38:56.789Z,15.23
2024-04-03T11:40:57.367Z,15.22
2024-04-03T11:43:56.879Z,15.19
2024-04-03T11:45:59.482Z,15.19
2024-04-03T11:47:57.212Z,15.25
2024-04-03T11:50:57.213Z,15.19
2024-04-03T11:52:57.381Z,15.22
2024-04-03T11:55:56.771Z,15.18
2024-04-03T11:57:56.811Z,15.18
2024-04-03T11:59:57.108Z,15.16
2024-04-03T12:02:56.777Z,15.14
2024-04-03T12:04:56.997Z,15.1
2024-04-03T12:07:56.818Z,15.09
2024-04-03T12:09:57.483Z,15.1
2024-04-03T12:12:57.269Z,15.09
2024-04-03T12:15:57.210Z,15.05
2024-04-03T12:18:57.441Z,15.03
2024-04-03T12:22:56.796Z,15.04
2024-04-03T12:24:57.617Z,15.05
2024-04-03T12:27:56.816Z,15.05
2024-04-03T12:29:57.257Z,15.08
2024-04-03T12:32:56.784Z,15.09
2024-04-03T12:34:57.368Z,15.06
2024-04-03T12:38:06.822Z,15.04
2024-04-03T12:40:57.367Z,15.09
2024-04-03T12:43:57.516Z,15.08
2024-04-03T12:46:56.804Z,14.98
2024-04-03T12:48:56.809Z,15
2024-04-03T12:50:56.800Z,15.03
2024-04-03T12:53:57.143Z,15.05
2024-04-03T12:55:57.316Z,15.08
2024-04-03T12:58:57.096Z,15.05
2024-04-03T13:01:57.366Z,15.06
2024-04-03T13:04:57.710Z,15.07
2024-04-03T13:07:58.264Z,15.11
2024-04-03T13:10:56.798Z,15.16
2024-04-03T13:12:57.008Z,15.18
2024-04-03T13:15:56.805Z,15.24
2024-04-03T13:18:56.852Z,15.25
2024-04-03T13:20:56.928Z,15.26
2024-04-03T13:22:57.607Z,15.27
2024-04-03T13:25:56.803Z,15.27
2024-04-03T13:27:57.399Z,15.28
2024-04-03T13:30:57.197Z,15.31
2024-04-03T13:32:57.359Z,15.33
2024-04-03T13:34:57.541Z,15.3
2024-04-03T13:37:56.777Z,15.31
2024-04-03T13:40:57.121Z,15.34
2024-04-03T13:43:57.490Z,15.34
2024-04-03T13:46:57.347Z,15.3
2024-04-03T13:48:57.474Z,15.28
2024-04-03T13:51:56.857Z,15.33
2024-04-03T13:54:57.052Z,15.32
2024-04-03T13:57:57.294Z,15.31
2024-04-03T14:00:56.828Z,15.28
2024-04-03T14:02:56.801Z,15.27
2024-04-03T14:05:56.864Z,15.3
2024-04-03T14:07:57.100Z,15.33
2024-04-03T14:10:56.843Z,15.31
2024-04-03T14:12:56.807Z,15.28
2024-04-03T14:14:59.374Z,15.33
2024-04-03T14:17:57.522Z,15.23
2024-04-03T14:20:57.106Z,15.21
2024-04-03T14:22:57.465Z,15.23
2024-04-03T14:25:56.847Z,15.23
2024-04-03T14:28:57.512Z,15.23
2024-04-03T14:31:56.795Z,15.26
2024-04-03T14:33:57.208Z,15.21
2024-04-03T14:36:56.819Z,15.23
2024-04-03T14:38:56.872Z,15.2
2024-04-03T14:41:57.338Z,15.24
2024-04-03T14:44:56.902Z,15.19
2024-04-03T14:47:56.820Z,15.18
2024-04-03T14:49:56.827Z,15.23
2024-04-03T14:52:56.924Z,15.22
2024-04-03T14:54:57.394Z,15.23
2024-04-03T14:57:57.499Z,15.27
2024-04-03T14:59:57.726Z,15.25
2024-04-03T15:02:56.859Z,15.25
2024-04-03T15:04:56.813Z,15.22
2024-04-03T15:06:56.832Z,15.22
2024-04-03T15:08:57.006Z,15.24
2024-04-03T15:11:56.826Z,15.25
2024-04-03T15:13:57.561Z,15.24
2024-04-03T15:16:57.603Z,15.23
2024-04-03T15:19:57.065Z,15.25
2024-04-03T15:22:56.842Z,15.29
2024-04-03T15:24:57.471Z,15.29
2024-04-03T15:27:56.814Z,15.3
2024-04-03T15:30:56.825Z,15.32
2024-04-03T15:32:57.094Z,15.34
2024-04-03T15:35:57.699Z,15.38
2024-04-03T15:38:56.870Z,15.38
2024-04-03T15:40:56.947Z,15.41
2024-04-03T15:43:56.859Z,15.54
2024-04-03T15:45:57.607Z,15.75
2024-04-03T15:48:56.803Z,16.1
2024-04-03T15:50:56.837Z,16.25
2024-04-03T15:52:57.255Z,16.35
2024-04-03T15:55:57.396Z,16.46
2024-04-03T15:58:56.815Z,16.52
2024-04-03T16:01:57.689Z,16.49
2024-04-03T16:04:56.930Z,16.4
2024-04-03T16:07:56.876Z,16.36
2024-04-03T16:09:57.736Z,16.33
2024-04-03T16:12:56.826Z,16.37
2024-04-03T16:14:57.360Z,16.45
2024-04-03T16:17:56.822Z,16.64
2024-04-03T16:19:56.902Z,16.7
2024-04-03T16:22:57.239Z,16.98
2024-04-03T16:25:56.862Z,17.09
2024-04-03T16:28:56.832Z,17.03
2024-04-03T16:31:56.810Z,16.95
2024-04-03T16:33:56.833Z,16.94
2024-04-03T16:36:56.936Z,16.91
2024-04-03T16:38:57.537Z,16.92
2024-04-03T16:41:56.840Z,16.9
2024-04-03T16:44:56.831Z,16.96
2024-04-03T16:47:57.682Z,17.25
2024-04-03T16:50:57.267Z,17.36
2024-04-03T16:53:56.799Z,17.24
2024-04-03T16:55:56.814Z,17.18
2024-04-03T16:57:56.817Z,17.15
2024-04-03T16:59:57.263Z,17.11
2024-04-03T17:02:57.777Z,17.02
2024-04-03T17:05:57.146Z,16.94
2024-04-03T17:08:56.822Z,16.85
2024-04-03T17:11:56.830Z,16.75
2024-04-03T17:13:56.864Z,16.69
2024-04-03T17:16:56.820Z,16.54
2024-04-03T17:18:57.360Z,16.49
2024-04-03T17:21:56.813Z,16.41
2024-04-03T17:23:56.824Z,16.37
2024-04-03T17:26:56.828Z,16.34
2024-04-03T17:28:56.817Z,16.27
2024-04-03T17:30:57.091Z,16.25
2024-04-03T17:33:57.427Z,16.2
2024-04-03T17:36:57.304Z,16.16
2024-04-03T17:39:57.224Z,16.11
2024-04-03T17:41:57.682Z,16.1
2024-04-03T17:44:57.306Z,16.08
2024-04-03T17:46:59.251Z,16.08
2024-04-03T17:49:56.863Z,16.04
2024-04-03T17:51:56.834Z,16.03
2024-04-03T17:53:57.146Z,16
2024-04-03T17:55:57.176Z,16
2024-04-03T17:58:59.371Z,15.99
2024-04-03T18:01:57.242Z,15.94
2024-04-03T18:04:56.838Z,15.91
2024-04-03T18:07:56.843Z,15.88
2024-04-03T18:10:56.976Z,15.85
2024-04-03T18:13:56.853Z,15.84
2024-04-03T18:15:57.609Z,15.82
2024-04-03T18:18:56.862Z,15.81
2024-04-03T18:20:57.510Z,15.81
2024-04-03T18:23:57.414Z,15.73
2024-04-03T18:26:57.334Z,15.79
2024-04-03T18:30:01.285Z,15.77
2024-04-03T18:31:57.551Z,15.73
2024-04-03T18:34:56.838Z,15.73
2024-04-03T18:36:56.870Z,15.74
2024-04-03T18:39:57.327Z,15.74
2024-04-03T18:42:57.561Z,15.71
2024-04-03T18:45:57.547Z,15.71
2024-04-03T18:48:56.853Z,15.68
2024-04-03T18:50:57.171Z,15.66
2024-04-03T18:53:57.421Z,15.59
2024-04-03T18:55:57.566Z,15.54
2024-04-03T18:58:51.718Z,15.52
2024-04-03T19:00:56.918Z,15.5
2024-04-03T19:02:57.180Z,15.5
2024-04-03T19:05:56.945Z,15.47
2024-04-03T19:07:57.362Z,15.47
2024-04-03T19:10:57.432Z,15.4
2024-04-03T19:13:56.830Z,15.33
2024-04-03T19:15:57.968Z,15.32
2024-04-03T19:18:56.826Z,15.24
2024-04-03T19:20:57.470Z,15.26
2024-04-03T19:23:56.855Z,15.24
2024-04-03T19:25:56.945Z,15.23
2024-04-03T19:28:57.095Z,15.22
2024-04-03T19:31:57.628Z,15.19
2024-04-03T19:34:57.036Z,15.22
2024-04-03T19:36:57.619Z,15.23
2024-04-03T19:39:57.101Z,15.33
2024-04-03T19:42:57.008Z,15.38
2024-04-03T19:45:56.872Z,15.28
2024-04-03T19:47:57.082Z,15.28
2024-04-03T19:50:57.195Z,15.26
2024-04-03T19:53:57.419Z,15.18
2024-04-03T19:56:56.844Z,15.17
2024-04-03T19:59:56.987Z,15.21
2024-04-03T20:02:57.443Z,15.16
2024-04-03T20:05:56.882Z,15.18
2024-04-03T20:07:57.506Z,15.14
2024-04-03T20:10:57.259Z,15.19
2024-04-03T20:13:57.123Z,15.18
2024-04-03T20:16:57.532Z,15.22
2024-04-03T20:19:56.845Z,15.34
2024-04-03T20:21:56.863Z,15.35
2024-04-03T20:24:58.620Z,15.31
2024-04-03T20:26:57.721Z,15.32
2024-04-03T20:29:56.932Z,15.29
2024-04-03T20:32:56.883Z,15.28
2024-04-03T20:35:57.419Z,15.37
2024-04-03T20:37:57.744Z,15.32
2024-04-03T20:40:57.222Z,15.29
2024-04-03T20:43:56.873Z,15.29
2024-04-03T20:46:56.874Z,15.29
2024-04-03T20:49:56.855Z,15.24
2024-04-03T20:51:57.471Z,15.21
2024-04-03T20:54:57.422Z,15.21
2024-04-03T20:56:57.562Z,15.2
2024-04-03T20:58:57.842Z,15.17
2024-04-03T21:01:57.723Z,15.14
2024-04-03T21:04:57.464Z,15.07
2024-04-03T21:07:57.467Z,15.06
2024-04-03T21:10:56.832Z,15.02
2024-04-03T21:13:57.097Z,15.01
2024-04-03T21:16:56.990Z,15.04
2024-04-03T21:19:56.852Z,15.03
2024-04-03T21:22:56.886Z,15.03
2024-04-03T21:24:56.895Z,15.03
2024-04-03T21:26:57.643Z,15.03
2024-04-03T21:29:57.364Z,14.99
2024-04-03T21:32:56.877Z,15.04
2024-04-03T21:35:56.914Z,15.07
2024-04-03T21:38:57.054Z,15.03
2024-04-03T21:41:57.413Z,15.02
2024-04-03T21:44:57.140Z,14.93
2024-04-03T21:47:56.840Z,14.97
2024-04-03T21:50:56.841Z,15.04
2024-04-03T21:52:57.144Z,15.04
2024-04-03T21:55:57.506Z,15.06
2024-04-03T21:58:56.855Z,15.07
2024-04-03T22:01:56.888Z,15.03
2024-04-03T22:03:57.577Z,15.01
2024-04-03T22:06:56.866Z,15.03
2024-04-03T22:08:56.859Z,15.03
2024-04-03T22:11:56.999Z,15.02
2024-04-03T22:14:57.283Z,15.04
2024-04-03T22:16:57.543Z,15.01
2024-04-03T22:19:57.148Z,15.03
2024-04-03T22:22:56.922Z,15.07
2024-04-03T22:24:57.046Z,15.09
2024-04-03T22:27:56.978Z,15.12
2024-04-03T22:29:57.562Z,15.17
2024-04-03T22:32:57.646Z,15.06
2024-04-03T22:35:56.855Z,15.01
2024-04-03T22:37:56.901Z,15.04
2024-04-03T22:40:57.107Z,15.09
2024-04-03T22:43:56.874Z,15.12
2024-04-03T22:45:56.888Z,15.1
2024-04-03T22:47:57.401Z,15.07
2024-04-03T22:50:56.908Z,15.01
2024-04-03T22:52:56.885Z,15.04
2024-04-03T22:55:56.856Z,15.06
2024-04-03T22:57:57.010Z,15.04
2024-04-03T23:00:56.919Z,14.99
2024-04-03T23:03:56.918Z,15.05
2024-04-03T23:06:56.852Z,15.17
2024-04-03T23:08:56.862Z,15.18
2024-04-03T23:10:57.086Z,15.18
2024-04-03T23:12:57.446Z,15.13
2024-04-03T23:15:56.922Z,15.18
2024-04-03T23:18:56.870Z,15.13
2024-04-03T23:20:56.896Z,15.17
2024-04-03T23:23:56.859Z,15.15
2024-04-03T23:26:56.909Z,15.19
2024-04-03T23:28:57.424Z,15.2
2024-04-03T23:31:56.874Z,15.08
2024-04-03T23:33:56.942Z,14.99
2024-04-03T23:36:56.863Z,14.99
2024-04-03T23:38:57.022Z,15.02
2024-04-03T23:41:56.903Z,14.98
2024-04-03T23:43:57.229Z,14.94
2024-04-03T23:45:57.331Z,14.97
2024-04-03T23:48:56.884Z,14.96
2024-04-03T23:51:56.872Z,14.85
2024-04-03T23:53:56.876Z,14.81
2024-04-03T23:56:56.934Z,14.85
2024-04-03T23:59:56.911Z,14.79
